Hanover, Illinois
Current Conditions -  °F | °C
As of 4:35 PM on Friday 19 Dec 2014 (Local Time) from KSFY Reporting Station
Overcast Overcast  
Wind Chill: 30°   Ceiling: 3600
Heat Index: 30°   Visibility: 10mi
Dew Point: 22°   Wind: 0mph
Humidity: 73%   Direction: NA
Pressure: 30.31"   Gusts: NA
Location:  42.26°N, 90.28°W
Report Text: KSFY 192235Z AUTO 00000KT 10SM OVC036 M01/M05 A3031 RMK AO2 T10131055
Loading
Personal Weather Stations






























Interactive Weather Map New forecast layout! Learn more

10-Day Weather Forecast

Advertisements
Track Severe Weather on mobile